sensor_id;sensor_type;location;lat;lon;timestamp;temperature;humidity
5226;DHT22;2632;51.666;7.146;2023-08-12T00:01:15;21.30;99.90
5226;DHT22;2632;51.666;7.146;2023-08-12T00:03:43;21.20;99.90
5226;DHT22;2632;51.666;7.146;2023-08-12T00:06:10;21.30;99.90
5226;DHT22;2632;51.666;7.146;2023-08-12T00:08:36;21.20;99.90
5226;DHT22;2632;51.666;7.146;2023-08-12T00:11:03;21.20;99.90
5226;DHT22;2632;51.666;7.146;2023-08-12T00:13:30;21.00;99.90
5226;DHT22;2632;51.666;7.146;2023-08-12T00:15:56;21.50;99.90
5226;DHT22;2632;51.666;7.146;2023-08-12T00:18:23;21.20;99.90
5226;DHT22;2632;51.666;7.146;2023-08-12T00:20:50;21.60;99.90
5226;DHT22;2632;51.666;7.146;2023-08-12T00:23:17;21.30;99.90
5226;DHT22;2632;51.666;7.146;2023-08-12T00:25:44;21.30;99.90
5226;DHT22;2632;51.666;7.146;2023-08-12T00:28:11;21.20;99.90
5226;DHT22;2632;51.666;7.146;2023-08-12T00:30:37;21.60;99.90
5226;DHT22;2632;51.666;7.146;2023-08-12T00:33:04;21.20;99.90
5226;DHT22;2632;51.666;7.146;2023-08-12T00:35:31;22.20;99.90
5226;DHT22;2632;51.666;7.146;2023-08-12T00:37:57;21.40;99.90
5226;DHT22;2632;51.666;7.146;2023-08-12T00:40:26;21.30;99.90
5226;DHT22;2632;51.666;7.146;2023-08-12T00:42:52;21.20;99.90
5226;DHT22;2632;51.666;7.146;2023-08-12T00:45:19;21.10;99.90
5226;DHT22;2632;51.666;7.146;2023-08-12T00:47:46;21.00;99.90
5226;DHT22;2632;51.666;7.146;2023-08-12T00:50:14;20.90;99.90
5226;DHT22;2632;51.666;7.146;2023-08-12T00:52:42;21.50;99.90
5226;DHT22;2632;51.666;7.146;2023-08-12T00:55:09;21.00;99.90
5226;DHT22;2632;51.666;7.146;2023-08-12T00:57:36;21.10;99.90
5226;DHT22;2632;51.666;7.146;2023-08-12T01:00:03;21.20;99.90
5226;DHT22;2632;51.666;7.146;2023-08-12T01:02:30;21.20;99.90
5226;DHT22;2632;51.666;7.146;2023-08-12T01:04:58;21.10;99.90
5226;DHT22;2632;51.666;7.146;2023-08-12T01:07:25;21.00;99.90
5226;DHT22;2632;51.666;7.146;2023-08-12T01:09:52;20.90;99.90
5226;DHT22;2632;51.666;7.146;2023-08-12T01:12:26;21.00;99.90
5226;DHT22;2632;51.666;7.146;2023-08-12T01:17:31;21.00;99.90
5226;DHT22;2632;51.666;7.146;2023-08-12T01:20:01;21.10;99.90
5226;DHT22;2632;51.666;7.146;2023-08-12T01:22:37;20.90;99.90
5226;DHT22;2632;51.666;7.146;2023-08-12T01:25:08;21.30;99.90
5226;DHT22;2632;51.666;7.146;2023-08-12T01:27:35;20.90;99.90
5226;DHT22;2632;51.666;7.146;2023-08-12T01:30:04;20.90;99.90
5226;DHT22;2632;51.666;7.146;2023-08-12T01:35:20;21.40;99.90
5226;DHT22;2632;51.666;7.146;2023-08-12T01:37:50;20.90;99.90
5226;DHT22;2632;51.666;7.146;2023-08-12T01:40:19;21.40;99.90
5226;DHT22;2632;51.666;7.146;2023-08-12T01:42:46;21.20;99.90
5226;DHT22;2632;51.666;7.146;2023-08-12T01:45:13;20.90;99.90
5226;DHT22;2632;51.666;7.146;2023-08-12T01:47:43;20.70;99.90
5226;DHT22;2632;51.666;7.146;2023-08-12T01:50:10;20.70;99.90
5226;DHT22;2632;51.666;7.146;2023-08-12T01:52:37;21.00;99.90
5226;DHT22;2632;51.666;7.146;2023-08-12T01:55:03;20.80;99.90
5226;DHT22;2632;51.666;7.146;2023-08-12T01:57:30;20.50;99.90
5226;DHT22;2632;51.666;7.146;2023-08-12T01:59:57;20.50;99.90
5226;DHT22;2632;51.666;7.146;2023-08-12T02:02:24;20.60;99.90
5226;DHT22;2632;51.666;7.146;2023-08-12T02:04:50;20.50;99.90
5226;DHT22;2632;51.666;7.146;2023-08-12T02:07:17;20.50;99.90
5226;DHT22;2632;51.666;7.146;2023-08-12T02:09:43;20.40;99.90
5226;DHT22;2632;51.666;7.146;2023-08-12T02:12:10;20.90;99.90
5226;DHT22;2632;51.666;7.146;2023-08-12T02:14:37;20.60;99.90
5226;DHT22;2632;51.666;7.146;2023-08-12T02:17:04;21.10;99.90
5226;DHT22;2632;51.666;7.146;2023-08-12T02:19:34;20.50;99.90
5226;DHT22;2632;51.666;7.146;2023-08-12T02:22:03;20.50;99.90
5226;DHT22;2632;51.666;7.146;2023-08-12T02:24:30;20.50;99.90
5226;DHT22;2632;51.666;7.146;2023-08-12T02:26:57;20.50;99.90
5226;DHT22;2632;51.666;7.146;2023-08-12T02:29:23;20.70;99.90
5226;DHT22;2632;51.666;7.146;2023-08-12T02:31:50;21.20;99.90
5226;DHT22;2632;51.666;7.146;2023-08-12T02:34:17;20.80;99.90
5226;DHT22;2632;51.666;7.146;2023-08-12T02:36:43;20.40;99.90
5226;DHT22;2632;51.666;7.146;2023-08-12T02:39:10;20.50;99.90
5226;DHT22;2632;51.666;7.146;2023-08-12T02:41:37;20.50;99.90
5226;DHT22;2632;51.666;7.146;2023-08-12T02:44:04;20.50;99.90
5226;DHT22;2632;51.666;7.146;2023-08-12T02:46:31;20.50;99.90
5226;DHT22;2632;51.666;7.146;2023-08-12T02:48:57;21.30;99.90
5226;DHT22;2632;51.666;7.146;2023-08-12T02:51:24;21.00;99.90
5226;DHT22;2632;51.666;7.146;2023-08-12T02:53:51;20.60;99.90
5226;DHT22;2632;51.666;7.146;2023-08-12T02:56:17;20.70;99.90
5226;DHT22;2632;51.666;7.146;2023-08-12T02:58:44;20.50;99.90
5226;DHT22;2632;51.666;7.146;2023-08-12T03:01:10;21.00;99.90
5226;DHT22;2632;51.666;7.146;2023-08-12T03:03:37;20.50;99.90
5226;DHT22;2632;51.666;7.146;2023-08-12T03:06:04;20.90;99.90
5226;DHT22;2632;51.666;7.146;2023-08-12T03:08:31;20.50;99.90
5226;DHT22;2632;51.666;7.146;2023-08-12T03:11:02;20.60;99.90
5226;DHT22;2632;51.666;7.146;2023-08-12T03:13:29;20.50;99.90
5226;DHT22;2632;51.666;7.146;2023-08-12T03:15:56;21.10;99.90
5226;DHT22;2632;51.666;7.146;2023-08-12T03:18:23;20.50;99.90
5226;DHT22;2632;51.666;7.146;2023-08-12T03:20:49;20.50;99.90
5226;DHT22;2632;51.666;7.146;2023-08-12T03:23:16;20.70;99.90
5226;DHT22;2632;51.666;7.146;2023-08-12T03:25:43;20.90;99.90
5226;DHT22;2632;51.666;7.146;2023-08-12T03:28:10;21.20;99.90
5226;DHT22;2632;51.666;7.146;2023-08-12T03:30:36;20.50;99.90
5226;DHT22;2632;51.666;7.146;2023-08-12T03:33:03;21.10;99.90
5226;DHT22;2632;51.666;7.146;2023-08-12T03:35:30;20.40;99.90
5226;DHT22;2632;51.666;7.146;2023-08-12T03:37:57;20.50;99.90
5226;DHT22;2632;51.666;7.146;2023-08-12T03:40:24;21.00;99.90
5226;DHT22;2632;51.666;7.146;2023-08-12T03:42:50;21.10;99.90
5226;DHT22;2632;51.666;7.146;2023-08-12T03:45:17;21.10;99.90
5226;DHT22;2632;51.666;7.146;2023-08-12T03:47:43;20.50;99.90
5226;DHT22;2632;51.666;7.146;2023-08-12T03:50:10;20.50;99.90
5226;DHT22;2632;51.666;7.146;2023-08-12T03:52:37;21.10;99.90
5226;DHT22;2632;51.666;7.146;2023-08-12T03:55:04;20.60;99.90
5226;DHT22;2632;51.666;7.146;2023-08-12T03:57:31;20.50;99.90
5226;DHT22;2632;51.666;7.146;2023-08-12T03:59:58;21.00;99.90
5226;DHT22;2632;51.666;7.146;2023-08-12T04:02:25;21.10;99.90
5226;DHT22;2632;51.666;7.146;2023-08-12T04:04:52;21.10;99.90
5226;DHT22;2632;51.666;7.146;2023-08-12T04:07:18;20.50;99.90
5226;DHT22;2632;51.666;7.146;2023-08-12T04:09:45;20.50;99.90
5226;DHT22;2632;51.666;7.146;2023-08-12T04:12:11;21.10;99.90
5226;DHT22;2632;51.666;7.146;2023-08-12T04:14:39;20.90;99.90
5226;DHT22;2632;51.666;7.146;2023-08-12T04:17:07;20.50;99.90
5226;DHT22;2632;51.666;7.146;2023-08-12T04:19:34;20.50;99.90
5226;DHT22;2632;51.666;7.146;2023-08-12T04:22:00;20.50;99.90
5226;DHT22;2632;51.666;7.146;2023-08-12T04:24:27;20.60;99.90
5226;DHT22;2632;51.666;7.146;2023-08-12T04:26:53;20.50;99.90
5226;DHT22;2632;51.666;7.146;2023-08-12T04:29:20;20.70;99.90
5226;DHT22;2632;51.666;7.146;2023-08-12T04:31:47;20.90;99.90
5226;DHT22;2632;51.666;7.146;2023-08-12T04:34:13;20.60;99.90
5226;DHT22;2632;51.666;7.146;2023-08-12T04:36:40;20.50;99.90
5226;DHT22;2632;51.666;7.146;2023-08-12T04:39:09;21.10;99.90
5226;DHT22;2632;51.666;7.146;2023-08-12T04:41:36;21.30;99.90
5226;DHT22;2632;51.666;7.146;2023-08-12T04:44:05;21.00;99.90
5226;DHT22;2632;51.666;7.146;2023-08-12T04:46:32;20.50;99.90
5226;DHT22;2632;51.666;7.146;2023-08-12T04:48:59;20.50;99.90
5226;DHT22;2632;51.666;7.146;2023-08-12T04:51:26;20.70;99.90
5226;DHT22;2632;51.666;7.146;2023-08-12T04:56:20;20.50;99.90
5226;DHT22;2632;51.666;7.146;2023-08-12T04:58:47;20.80;99.90
5226;DHT22;2632;51.666;7.146;2023-08-12T05:01:13;20.50;99.90
5226;DHT22;2632;51.666;7.146;2023-08-12T05:06:07;20.50;99.90
5226;DHT22;2632;51.666;7.146;2023-08-12T05:08:34;20.40;99.90
5226;DHT22;2632;51.666;7.146;2023-08-12T05:11:00;20.40;99.90
5226;DHT22;2632;51.666;7.146;2023-08-12T05:13:27;20.50;99.90
5226;DHT22;2632;51.666;7.146;2023-08-12T05:15:55;21.30;99.90
5226;DHT22;2632;51.666;7.146;2023-08-12T05:18:22;20.40;99.90
5226;DHT22;2632;51.666;7.146;2023-08-12T05:20:53;20.60;99.90
5226;DHT22;2632;51.666;7.146;2023-08-12T05:23:20;20.20;99.90
5226;DHT22;2632;51.666;7.146;2023-08-12T05:25:47;20.90;99.90
5226;DHT22;2632;51.666;7.146;2023-08-12T05:28:14;21.10;99.90
5226;DHT22;2632;51.666;7.146;2023-08-12T05:30:40;20.50;99.90
5226;DHT22;2632;51.666;7.146;2023-08-12T05:33:07;20.60;99.90
5226;DHT22;2632;51.666;7.146;2023-08-12T05:35:35;20.60;99.90
5226;DHT22;2632;51.666;7.146;2023-08-12T05:38:02;20.70;99.90
5226;DHT22;2632;51.666;7.146;2023-08-12T05:40:28;20.70;99.90
5226;DHT22;2632;51.666;7.146;2023-08-12T05:42:55;21.40;99.90
5226;DHT22;2632;51.666;7.146;2023-08-12T05:45:22;20.70;99.90
5226;DHT22;2632;51.666;7.146;2023-08-12T05:47:48;21.30;99.90
5226;DHT22;2632;51.666;7.146;2023-08-12T05:50:15;20.70;99.90
5226;DHT22;2632;51.666;7.146;2023-08-12T05:52:43;20.70;99.90
5226;DHT22;2632;51.666;7.146;2023-08-12T05:55:10;20.60;99.90
5226;DHT22;2632;51.666;7.146;2023-08-12T05:57:37;20.60;99.90
5226;DHT22;2632;51.666;7.146;2023-08-12T06:00:04;21.10;99.90
5226;DHT22;2632;51.666;7.146;2023-08-12T06:02:31;20.80;99.90
5226;DHT22;2632;51.666;7.146;2023-08-12T06:04:58;20.80;99.90
5226;DHT22;2632;51.666;7.146;2023-08-12T06:07:25;20.80;99.90
5226;DHT22;2632;51.666;7.146;2023-08-12T06:09:51;20.90;99.90
5226;DHT22;2632;51.666;7.146;2023-08-12T06:12:18;20.80;99.90
5226;DHT22;2632;51.666;7.146;2023-08-12T06:14:45;20.90;99.90
5226;DHT22;2632;51.666;7.146;2023-08-12T06:17:11;21.00;99.90
5226;DHT22;2632;51.666;7.146;2023-08-12T06:19:38;21.10;99.90
5226;DHT22;2632;51.666;7.146;2023-08-12T06:22:05;21.30;99.90
5226;DHT22;2632;51.666;7.146;2023-08-12T06:24:31;21.60;99.90
5226;DHT22;2632;51.666;7.146;2023-08-12T06:26:58;21.30;99.90
5226;DHT22;2632;51.666;7.146;2023-08-12T06:29:25;21.40;99.90
5226;DHT22;2632;51.666;7.146;2023-08-12T06:31:52;21.50;99.90
5226;DHT22;2632;51.666;7.146;2023-08-12T06:34:19;21.20;99.90
5226;DHT22;2632;51.666;7.146;2023-08-12T06:36:46;21.10;99.90
5226;DHT22;2632;51.666;7.146;2023-08-12T06:39:12;21.70;99.90
5226;DHT22;2632;51.666;7.146;2023-08-12T06:41:40;21.00;99.90
5226;DHT22;2632;51.666;7.146;2023-08-12T06:44:06;21.00;99.90
5226;DHT22;2632;51.666;7.146;2023-08-12T06:46:33;21.00;99.90
5226;DHT22;2632;51.666;7.146;2023-08-12T06:49:00;20.90;99.90
5226;DHT22;2632;51.666;7.146;2023-08-12T06:51:26;21.00;99.90
5226;DHT22;2632;51.666;7.146;2023-08-12T06:53:53;20.90;99.90
5226;DHT22;2632;51.666;7.146;2023-08-12T06:56:20;20.90;99.90
5226;DHT22;2632;51.666;7.146;2023-08-12T06:58:46;21.60;99.90
5226;DHT22;2632;51.666;7.146;2023-08-12T07:01:13;21.80;99.90
5226;DHT22;2632;51.666;7.146;2023-08-12T07:03:41;20.80;99.90
5226;DHT22;2632;51.666;7.146;2023-08-12T07:06:08;21.20;99.90
5226;DHT22;2632;51.666;7.146;2023-08-12T07:08:34;20.80;99.90
5226;DHT22;2632;51.666;7.146;2023-08-12T07:11:01;20.80;99.90
5226;DHT22;2632;51.666;7.146;2023-08-12T07:13:28;21.10;99.90
5226;DHT22;2632;51.666;7.146;2023-08-12T07:15:54;20.80;99.90
5226;DHT22;2632;51.666;7.146;2023-08-12T07:18:21;20.90;99.90
5226;DHT22;2632;51.666;7.146;2023-08-12T07:20:50;20.80;99.90
5226;DHT22;2632;51.666;7.146;2023-08-12T07:23:16;20.80;99.90
5226;DHT22;2632;51.666;7.146;2023-08-12T07:25:46;20.90;99.90
5226;DHT22;2632;51.666;7.146;2023-08-12T07:28:12;20.80;99.90
5226;DHT22;2632;51.666;7.146;2023-08-12T07:30:39;20.70;99.90
5226;DHT22;2632;51.666;7.146;2023-08-12T07:33:06;20.70;99.90
5226;DHT22;2632;51.666;7.146;2023-08-12T07:35:33;21.60;99.90
5226;DHT22;2632;51.666;7.146;2023-08-12T07:38:00;20.70;99.90
5226;DHT22;2632;51.666;7.146;2023-08-12T07:40:26;20.90;99.90
5226;DHT22;2632;51.666;7.146;2023-08-12T07:42:53;21.30;99.90
5226;DHT22;2632;51.666;7.146;2023-08-12T07:45:23;21.30;99.90
5226;DHT22;2632;51.666;7.146;2023-08-12T07:47:50;20.90;99.90
5226;DHT22;2632;51.666;7.146;2023-08-12T07:50:17;20.90;99.90
5226;DHT22;2632;51.666;7.146;2023-08-12T07:52:44;21.00;99.90
5226;DHT22;2632;51.666;7.146;2023-08-12T07:55:11;21.10;99.90
5226;DHT22;2632;51.666;7.146;2023-08-12T07:57:38;21.30;99.90
5226;DHT22;2632;51.666;7.146;2023-08-12T08:00:06;21.20;99.90
5226;DHT22;2632;51.666;7.146;2023-08-12T08:02:34;21.10;99.90
5226;DHT22;2632;51.666;7.146;2023-08-12T08:05:01;21.10;99.90
5226;DHT22;2632;51.666;7.146;2023-08-12T08:07:27;21.80;99.90
5226;DHT22;2632;51.666;7.146;2023-08-12T08:09:55;21.90;99.90
5226;DHT22;2632;51.666;7.146;2023-08-12T08:12:21;21.80;99.90
5226;DHT22;2632;51.666;7.146;2023-08-12T08:14:48;21.30;99.90
5226;DHT22;2632;51.666;7.146;2023-08-12T08:17:14;21.40;99.90
5226;DHT22;2632;51.666;7.146;2023-08-12T08:19:41;21.40;99.90
5226;DHT22;2632;51.666;7.146;2023-08-12T08:22:08;21.50;99.90
5226;DHT22;2632;51.666;7.146;2023-08-12T08:24:35;21.90;99.90
5226;DHT22;2632;51.666;7.146;2023-08-12T08:27:02;21.40;99.90
5226;DHT22;2632;51.666;7.146;2023-08-12T08:29:30;21.40;99.90
5226;DHT22;2632;51.666;7.146;2023-08-12T08:31:57;21.20;99.90
5226;DHT22;2632;51.666;7.146;2023-08-12T08:34:24;21.20;99.90
5226;DHT22;2632;51.666;7.146;2023-08-12T08:36:50;21.20;99.90
5226;DHT22;2632;51.666;7.146;2023-08-12T08:39:18;21.20;99.90
5226;DHT22;2632;51.666;7.146;2023-08-12T08:41:47;21.20;99.90
5226;DHT22;2632;51.666;7.146;2023-08-12T08:44:15;21.90;99.90
5226;DHT22;2632;51.666;7.146;2023-08-12T08:46:43;21.60;99.90
5226;DHT22;2632;51.666;7.146;2023-08-12T08:49:10;22.10;99.90
5226;DHT22;2632;51.666;7.146;2023-08-12T08:51:38;21.40;99.90
5226;DHT22;2632;51.666;7.146;2023-08-12T08:54:05;21.50;99.90
5226;DHT22;2632;51.666;7.146;2023-08-12T08:56:32;21.50;99.90
5226;DHT22;2632;51.666;7.146;2023-08-12T08:59:00;21.50;99.90
5226;DHT22;2632;51.666;7.146;2023-08-12T09:01:27;21.90;99.90
5226;DHT22;2632;51.666;7.146;2023-08-12T09:03:55;21.60;99.90
5226;DHT22;2632;51.666;7.146;2023-08-12T09:06:28;21.80;99.90
5226;DHT22;2632;51.666;7.146;2023-08-12T09:08:56;21.70;99.90
5226;DHT22;2632;51.666;7.146;2023-08-12T09:11:23;21.80;99.90
5226;DHT22;2632;51.666;7.146;2023-08-12T09:13:50;21.90;99.90
5226;DHT22;2632;51.666;7.146;2023-08-12T09:16:17;21.80;99.90
5226;DHT22;2632;51.666;7.146;2023-08-12T09:18:43;21.80;99.90
5226;DHT22;2632;51.666;7.146;2023-08-12T09:21:11;21.60;99.90
5226;DHT22;2632;51.666;7.146;2023-08-12T09:23:39;21.60;99.90
5226;DHT22;2632;51.666;7.146;2023-08-12T09:26:19;21.50;99.90
5226;DHT22;2632;51.666;7.146;2023-08-12T09:28:47;21.50;99.90
5226;DHT22;2632;51.666;7.146;2023-08-12T09:31:25;21.40;99.90
5226;DHT22;2632;51.666;7.146;2023-08-12T09:33:53;21.60;99.90
5226;DHT22;2632;51.666;7.146;2023-08-12T09:36:21;21.50;99.90
5226;DHT22;2632;51.666;7.146;2023-08-12T09:38:48;22.10;99.90
5226;DHT22;2632;51.666;7.146;2023-08-12T09:41:15;21.50;99.90
5226;DHT22;2632;51.666;7.146;2023-08-12T09:43:42;21.50;99.90
5226;DHT22;2632;51.666;7.146;2023-08-12T09:46:13;21.40;99.90
5226;DHT22;2632;51.666;7.146;2023-08-12T09:48:43;21.40;99.90
5226;DHT22;2632;51.666;7.146;2023-08-12T09:51:09;21.70;99.90
5226;DHT22;2632;51.666;7.146;2023-08-12T09:53:37;21.50;99.90
5226;DHT22;2632;51.666;7.146;2023-08-12T09:56:07;21.90;99.90
5226;DHT22;2632;51.666;7.146;2023-08-12T09:58:35;21.60;99.90
5226;DHT22;2632;51.666;7.146;2023-08-12T10:01:06;21.70;99.90
5226;DHT22;2632;51.666;7.146;2023-08-12T10:03:34;21.60;99.90
5226;DHT22;2632;51.666;7.146;2023-08-12T10:06:05;21.50;99.90
5226;DHT22;2632;51.666;7.146;2023-08-12T10:08:32;21.50;99.90
5226;DHT22;2632;51.666;7.146;2023-08-12T10:11:01;21.50;99.90
5226;DHT22;2632;51.666;7.146;2023-08-12T10:13:42;22.10;99.90
5226;DHT22;2632;51.666;7.146;2023-08-12T10:16:10;22.10;99.90
5226;DHT22;2632;51.666;7.146;2023-08-12T10:18:39;21.30;99.90
5226;DHT22;2632;51.666;7.146;2023-08-12T10:21:09;21.30;99.90
5226;DHT22;2632;51.666;7.146;2023-08-12T10:23:36;21.30;99.90
5226;DHT22;2632;51.666;7.146;2023-08-12T10:26:05;21.30;99.90
5226;DHT22;2632;51.666;7.146;2023-08-12T10:31:10;21.40;99.90
5226;DHT22;2632;51.666;7.146;2023-08-12T10:33:38;21.40;99.90
5226;DHT22;2632;51.666;7.146;2023-08-12T10:36:06;21.50;99.90
5226;DHT22;2632;51.666;7.146;2023-08-12T10:38:33;21.80;99.90
5226;DHT22;2632;51.666;7.146;2023-08-12T10:41:19;22.00;99.90
5226;DHT22;2632;51.666;7.146;2023-08-12T10:44:02;22.30;99.90
5226;DHT22;2632;51.666;7.146;2023-08-12T10:46:35;22.40;99.90
5226;DHT22;2632;51.666;7.146;2023-08-12T10:49:10;22.50;99.90
5226;DHT22;2632;51.666;7.146;2023-08-12T10:51:49;22.40;99.90
5226;DHT22;2632;51.666;7.146;2023-08-12T10:54:25;22.20;99.90
5226;DHT22;2632;51.666;7.146;2023-08-12T10:57:05;22.00;99.90
5226;DHT22;2632;51.666;7.146;2023-08-12T11:02:17;21.90;99.90
5226;DHT22;2632;51.666;7.146;2023-08-12T11:04:48;21.80;99.90
5226;DHT22;2632;51.666;7.146;2023-08-12T11:07:19;21.80;99.90
5226;DHT22;2632;51.666;7.146;2023-08-12T11:09:51;21.90;99.90
5226;DHT22;2632;51.666;7.146;2023-08-12T11:12:34;21.90;99.90
5226;DHT22;2632;51.666;7.146;2023-08-12T11:15:02;21.80;99.90
5226;DHT22;2632;51.666;7.146;2023-08-12T11:17:38;21.90;99.90
5226;DHT22;2632;51.666;7.146;2023-08-12T11:20:07;21.80;99.90
5226;DHT22;2632;51.666;7.146;2023-08-12T11:22:38;21.90;99.90
5226;DHT22;2632;51.666;7.146;2023-08-12T11:25:09;22.30;99.90
5226;DHT22;2632;51.666;7.146;2023-08-12T11:27:44;22.60;99.90
5226;DHT22;2632;51.666;7.146;2023-08-12T11:30:14;22.70;99.90
5226;DHT22;2632;51.666;7.146;2023-08-12T11:32:46;22.80;99.90
5226;DHT22;2632;51.666;7.146;2023-08-12T11:35:15;22.90;99.90
5226;DHT22;2632;51.666;7.146;2023-08-12T11:37:46;23.00;99.90
5226;DHT22;2632;51.666;7.146;2023-08-12T11:40:15;22.90;99.90
5226;DHT22;2632;51.666;7.146;2023-08-12T11:42:43;22.90;99.90
5226;DHT22;2632;51.666;7.146;2023-08-12T11:45:11;23.00;99.90
5226;DHT22;2632;51.666;7.146;2023-08-12T11:47:40;22.90;99.90
5226;DHT22;2632;51.666;7.146;2023-08-12T11:50:09;22.80;99.90
5226;DHT22;2632;51.666;7.146;2023-08-12T11:52:37;22.90;99.90
5226;DHT22;2632;51.666;7.146;2023-08-12T11:55:05;23.10;99.90
5226;DHT22;2632;51.666;7.146;2023-08-12T11:57:33;22.90;99.90
5226;DHT22;2632;51.666;7.146;2023-08-12T12:00:05;22.70;99.90
5226;DHT22;2632;51.666;7.146;2023-08-12T12:05:13;22.60;99.90
5226;DHT22;2632;51.666;7.146;2023-08-12T12:07:41;22.40;99.90
5226;DHT22;2632;51.666;7.146;2023-08-12T12:10:08;22.20;99.90
5226;DHT22;2632;51.666;7.146;2023-08-12T12:12:38;22.20;99.90
5226;DHT22;2632;51.666;7.146;2023-08-12T12:15:06;22.10;99.90
5226;DHT22;2632;51.666;7.146;2023-08-12T12:17:38;22.10;99.90
5226;DHT22;2632;51.666;7.146;2023-08-12T12:20:07;22.20;99.90
5226;DHT22;2632;51.666;7.146;2023-08-12T12:22:33;22.70;99.90
5226;DHT22;2632;51.666;7.146;2023-08-12T12:25:08;22.80;99.90
5226;DHT22;2632;51.666;7.146;2023-08-12T12:27:40;22.90;99.90
5226;DHT22;2632;51.666;7.146;2023-08-12T12:30:11;22.90;99.90
5226;DHT22;2632;51.666;7.146;2023-08-12T12:32:38;22.90;99.90
5226;DHT22;2632;51.666;7.146;2023-08-12T12:35:05;23.00;99.90
5226;DHT22;2632;51.666;7.146;2023-08-12T12:37:35;23.30;99.90
5226;DHT22;2632;51.666;7.146;2023-08-12T12:40:03;23.70;99.90
5226;DHT22;2632;51.666;7.146;2023-08-12T12:42:32;23.70;99.90
5226;DHT22;2632;51.666;7.146;2023-08-12T12:44:58;23.80;99.90
5226;DHT22;2632;51.666;7.146;2023-08-12T12:47:25;24.00;99.90
5226;DHT22;2632;51.666;7.146;2023-08-12T12:49:52;23.90;99.90
5226;DHT22;2632;51.666;7.146;2023-08-12T12:52:18;23.70;99.90
5226;DHT22;2632;51.666;7.146;2023-08-12T12:54:46;23.40;99.90
5226;DHT22;2632;51.666;7.146;2023-08-12T12:57:13;23.30;99.90
5226;DHT22;2632;51.666;7.146;2023-08-12T12:59:40;23.10;99.90
5226;DHT22;2632;51.666;7.146;2023-08-12T13:02:06;22.70;99.90
5226;DHT22;2632;51.666;7.146;2023-08-12T13:04:34;22.70;99.90
5226;DHT22;2632;51.666;7.146;2023-08-12T13:07:00;22.60;99.90
5226;DHT22;2632;51.666;7.146;2023-08-12T13:09:27;22.50;99.90
5226;DHT22;2632;51.666;7.146;2023-08-12T13:11:54;22.40;99.90
5226;DHT22;2632;51.666;7.146;2023-08-12T13:14:23;22.60;99.90
5226;DHT22;2632;51.666;7.146;2023-08-12T13:16:50;22.60;99.90
5226;DHT22;2632;51.666;7.146;2023-08-12T13:19:17;22.50;99.90
5226;DHT22;2632;51.666;7.146;2023-08-12T13:21:44;22.30;99.90
5226;DHT22;2632;51.666;7.146;2023-08-12T13:24:11;22.40;99.90
5226;DHT22;2632;51.666;7.146;2023-08-12T13:26:37;22.40;99.90
5226;DHT22;2632;51.666;7.146;2023-08-12T13:29:04;22.60;99.90
5226;DHT22;2632;51.666;7.146;2023-08-12T13:31:31;22.30;99.90
5226;DHT22;2632;51.666;7.146;2023-08-12T13:33:57;22.30;99.90
5226;DHT22;2632;51.666;7.146;2023-08-12T13:36:24;22.50;99.90
5226;DHT22;2632;51.666;7.146;2023-08-12T13:38:51;22.30;99.90
5226;DHT22;2632;51.666;7.146;2023-08-12T13:41:18;22.40;99.90
5226;DHT22;2632;51.666;7.146;2023-08-12T13:43:44;22.50;99.90
5226;DHT22;2632;51.666;7.146;2023-08-12T13:46:12;22.50;99.90
5226;DHT22;2632;51.666;7.146;2023-08-12T13:48:39;22.70;99.90
5226;DHT22;2632;51.666;7.146;2023-08-12T13:51:06;22.80;99.90
5226;DHT22;2632;51.666;7.146;2023-08-12T13:53:32;22.70;99.90
5226;DHT22;2632;51.666;7.146;2023-08-12T13:55:59;22.70;99.90
5226;DHT22;2632;51.666;7.146;2023-08-12T13:58:26;22.40;99.90
5226;DHT22;2632;51.666;7.146;2023-08-12T14:00:52;22.30;99.90
5226;DHT22;2632;51.666;7.146;2023-08-12T14:03:19;22.10;99.90
5226;DHT22;2632;51.666;7.146;2023-08-12T14:05:46;21.90;99.90
5226;DHT22;2632;51.666;7.146;2023-08-12T14:08:12;21.70;99.90
5226;DHT22;2632;51.666;7.146;2023-08-12T14:10:39;21.70;99.90
5226;DHT22;2632;51.666;7.146;2023-08-12T14:13:06;21.70;99.90
5226;DHT22;2632;51.666;7.146;2023-08-12T14:15:33;21.90;99.90
5226;DHT22;2632;51.666;7.146;2023-08-12T14:18:01;21.90;99.90
5226;DHT22;2632;51.666;7.146;2023-08-12T14:20:28;22.20;99.90
5226;DHT22;2632;51.666;7.146;2023-08-12T14:22:54;22.40;99.90
5226;DHT22;2632;51.666;7.146;2023-08-12T14:25:21;22.50;99.90
5226;DHT22;2632;51.666;7.146;2023-08-12T14:27:48;22.70;99.90
5226;DHT22;2632;51.666;7.146;2023-08-12T14:30:18;22.40;99.90
5226;DHT22;2632;51.666;7.146;2023-08-12T14:32:46;23.30;99.90
5226;DHT22;2632;51.666;7.146;2023-08-12T14:35:16;23.60;99.90
5226;DHT22;2632;51.666;7.146;2023-08-12T14:37:43;24.00;99.90
5226;DHT22;2632;51.666;7.146;2023-08-12T14:40:10;24.30;99.90
5226;DHT22;2632;51.666;7.146;2023-08-12T14:42:37;24.00;99.90
5226;DHT22;2632;51.666;7.146;2023-08-12T14:45:04;24.20;99.90
5226;DHT22;2632;51.666;7.146;2023-08-12T14:47:31;24.10;99.90
5226;DHT22;2632;51.666;7.146;2023-08-12T14:49:58;24.10;99.90
5226;DHT22;2632;51.666;7.146;2023-08-12T14:52:25;24.50;99.90
5226;DHT22;2632;51.666;7.146;2023-08-12T14:54:51;25.00;99.90
5226;DHT22;2632;51.666;7.146;2023-08-12T14:57:18;24.30;99.90
5226;DHT22;2632;51.666;7.146;2023-08-12T14:59:45;23.90;99.90
5226;DHT22;2632;51.666;7.146;2023-08-12T15:02:17;24.00;99.90
5226;DHT22;2632;51.666;7.146;2023-08-12T15:04:44;24.40;99.90
5226;DHT22;2632;51.666;7.146;2023-08-12T15:07:10;24.60;99.90
5226;DHT22;2632;51.666;7.146;2023-08-12T15:09:38;24.60;99.90
5226;DHT22;2632;51.666;7.146;2023-08-12T15:12:05;24.90;99.90
5226;DHT22;2632;51.666;7.146;2023-08-12T15:14:31;24.60;99.90
5226;DHT22;2632;51.666;7.146;2023-08-12T15:16:59;24.40;99.90
5226;DHT22;2632;51.666;7.146;2023-08-12T15:19:25;24.20;99.90
5226;DHT22;2632;51.666;7.146;2023-08-12T15:21:52;24.10;99.90
5226;DHT22;2632;51.666;7.146;2023-08-12T15:24:19;23.90;99.90
5226;DHT22;2632;51.666;7.146;2023-08-12T15:26:45;24.00;99.90
5226;DHT22;2632;51.666;7.146;2023-08-12T15:29:12;24.00;99.90
5226;DHT22;2632;51.666;7.146;2023-08-12T15:31:38;23.90;99.90
5226;DHT22;2632;51.666;7.146;2023-08-12T15:34:05;23.90;99.90
5226;DHT22;2632;51.666;7.146;2023-08-12T15:36:32;23.90;99.90
5226;DHT22;2632;51.666;7.146;2023-08-12T15:39:02;23.90;99.90
5226;DHT22;2632;51.666;7.146;2023-08-12T15:41:29;24.00;99.90
5226;DHT22;2632;51.666;7.146;2023-08-12T15:43:55;23.80;99.90
5226;DHT22;2632;51.666;7.146;2023-08-12T15:46:22;23.90;99.90
5226;DHT22;2632;51.666;7.146;2023-08-12T15:48:49;24.00;99.90
5226;DHT22;2632;51.666;7.146;2023-08-12T15:51:16;24.00;99.90
5226;DHT22;2632;51.666;7.146;2023-08-12T15:53:42;24.10;99.90
5226;DHT22;2632;51.666;7.146;2023-08-12T15:56:09;24.30;99.90
5226;DHT22;2632;51.666;7.146;2023-08-12T15:58:36;24.20;99.90
5226;DHT22;2632;51.666;7.146;2023-08-12T16:01:02;24.10;99.90
5226;DHT22;2632;51.666;7.146;2023-08-12T16:03:30;24.20;99.90
5226;DHT22;2632;51.666;7.146;2023-08-12T16:05:57;24.30;99.90
5226;DHT22;2632;51.666;7.146;2023-08-12T16:08:27;24.30;99.90
5226;DHT22;2632;51.666;7.146;2023-08-12T16:10:53;24.20;99.90
5226;DHT22;2632;51.666;7.146;2023-08-12T16:13:20;24.20;99.90
5226;DHT22;2632;51.666;7.146;2023-08-12T16:15:47;23.60;99.90
5226;DHT22;2632;51.666;7.146;2023-08-12T16:18:14;24.10;99.60
5226;DHT22;2632;51.666;7.146;2023-08-12T16:20:40;24.20;99.90
5226;DHT22;2632;51.666;7.146;2023-08-12T16:23:07;24.30;99.40